Arlington, Ohio
Current Conditions -  °F | °C
As of 11:53 AM on Wednesday 26 Nov 2014 (Local Time) from KFDY Reporting Station
Overcast Overcast  
Wind Chill: 26°   Ceiling: 2800
Heat Index: 32°   Visibility: 10mi
Dew Point: 23°   Wind: 6mph
Humidity: 69%   Direction: 50°NE
Pressure: 30.11"   Gusts: NA
Location:  40.89°N, 83.65°W
Report Text: KFDY 261653Z AUTO 05005KT 10SM FEW023 OVC028 00/M05 A3011 RMK AO2 SLP201 T00001050
Loading
Personal Weather Stations






























Interactive Weather Map New forecast layout! Learn more

10-Day Weather Forecast

Advertisements
Track Severe Weather on mobile